sensor_id;sensor_type;location;lat;lon;timestamp;pressure;altitude;pressure_sealevel;temperature;humidity
79198;BME280;68628;48.714;9.472;2023-06-22T00:02:16;98107.69;;;21.25;72.02
79198;BME280;68628;48.714;9.472;2023-06-22T00:04:42;98094.38;;;21.30;72.03
79198;BME280;68628;48.714;9.472;2023-06-22T00:07:08;98092.72;;;21.29;71.83
79198;BME280;68628;48.714;9.472;2023-06-22T00:09:34;98094.47;;;21.18;72.34
79198;BME280;68628;48.714;9.472;2023-06-22T00:12:00;98098.66;;;21.14;72.41
79198;BME280;68628;48.714;9.472;2023-06-22T00:14:25;98085.06;;;21.16;72.37
79198;BME280;68628;48.714;9.472;2023-06-22T00:16:51;98084.03;;;21.22;72.06
79198;BME280;68628;48.714;9.472;2023-06-22T00:19:23;98090.72;;;21.19;71.81
79198;BME280;68628;48.714;9.472;2023-06-22T00:21:50;98087.47;;;21.17;72.09
79198;BME280;68628;48.714;9.472;2023-06-22T00:24:19;98091.22;;;21.16;72.44
79198;BME280;68628;48.714;9.472;2023-06-22T00:26:47;98092.25;;;21.15;72.85
79198;BME280;68628;48.714;9.472;2023-06-22T00:29:14;98090.19;;;21.00;73.27
79198;BME280;68628;48.714;9.472;2023-06-22T00:31:39;98103.59;;;20.83;74.20
79198;BME280;68628;48.714;9.472;2023-06-22T00:34:05;98097.19;;;20.84;73.72
79198;BME280;68628;48.714;9.472;2023-06-22T00:39:01;98094.50;;;20.84;73.64
79198;BME280;68628;48.714;9.472;2023-06-22T00:41:27;98104.56;;;20.60;74.58
79198;BME280;68628;48.714;9.472;2023-06-22T00:43:56;98097.31;;;20.60;74.23
79198;BME280;68628;48.714;9.472;2023-06-22T00:46:22;98106.06;;;20.56;74.52
79198;BME280;68628;48.714;9.472;2023-06-22T00:48:48;98094.56;;;20.55;74.85
79198;BME280;68628;48.714;9.472;2023-06-22T00:51:15;98095.06;;;20.52;74.48
79198;BME280;68628;48.714;9.472;2023-06-22T00:53:41;98082.81;;;20.56;74.66
79198;BME280;68628;48.714;9.472;2023-06-22T00:56:08;98080.84;;;20.52;74.94
79198;BME280;68628;48.714;9.472;2023-06-22T00:58:38;98075.00;;;20.38;75.43
79198;BME280;68628;48.714;9.472;2023-06-22T01:01:06;98083.59;;;20.40;74.90
79198;BME280;68628;48.714;9.472;2023-06-22T01:03:33;98077.34;;;20.34;75.23
79198;BME280;68628;48.714;9.472;2023-06-22T01:06:08;98080.19;;;20.27;75.20
79198;BME280;68628;48.714;9.472;2023-06-22T01:09:06;98091.03;;;20.21;76.28
79198;BME280;68628;48.714;9.472;2023-06-22T01:11:55;98100.25;;;20.13;76.39
79198;BME280;68628;48.714;9.472;2023-06-22T01:17:08;98111.59;;;20.03;76.66
79198;BME280;68628;48.714;9.472;2023-06-22T01:22:26;98110.34;;;19.94;76.83
79198;BME280;68628;48.714;9.472;2023-06-22T01:25:16;98114.06;;;19.93;76.55
79198;BME280;68628;48.714;9.472;2023-06-22T01:28:18;98120.69;;;19.90;77.36
79198;BME280;68628;48.714;9.472;2023-06-22T01:30:52;98108.63;;;19.88;77.60
79198;BME280;68628;48.714;9.472;2023-06-22T01:33:31;98113.28;;;19.80;77.46
79198;BME280;68628;48.714;9.472;2023-06-22T01:36:01;98117.13;;;19.85;77.30
79198;BME280;68628;48.714;9.472;2023-06-22T01:38:29;98123.41;;;19.67;78.29
79198;BME280;68628;48.714;9.472;2023-06-22T01:41:00;98131.16;;;19.80;77.77
79198;BME280;68628;48.714;9.472;2023-06-22T01:43:28;98118.06;;;19.67;77.98
79198;BME280;68628;48.714;9.472;2023-06-22T01:45:57;98108.00;;;19.45;79.25
79198;BME280;68628;48.714;9.472;2023-06-22T01:48:26;98114.13;;;19.57;78.61
79198;BME280;68628;48.714;9.472;2023-06-22T01:50:53;98114.59;;;19.66;78.58
79198;BME280;68628;48.714;9.472;2023-06-22T01:53:22;98117.44;;;19.76;77.23
79198;BME280;68628;48.714;9.472;2023-06-22T01:55:48;98095.06;;;19.65;77.96
79198;BME280;68628;48.714;9.472;2023-06-22T01:58:15;98096.97;;;19.41;79.51
79198;BME280;68628;48.714;9.472;2023-06-22T02:00:49;98103.94;;;19.54;79.16
79198;BME280;68628;48.714;9.472;2023-06-22T02:03:27;98109.38;;;19.59;78.17
79198;BME280;68628;48.714;9.472;2023-06-22T02:06:04;98102.97;;;19.60;78.14
79198;BME280;68628;48.714;9.472;2023-06-22T02:08:40;98103.00;;;19.48;78.91
79198;BME280;68628;48.714;9.472;2023-06-22T02:11:10;98112.53;;;19.44;78.84
79198;BME280;68628;48.714;9.472;2023-06-22T02:13:40;98110.44;;;19.46;78.49
79198;BME280;68628;48.714;9.472;2023-06-22T02:16:10;98105.66;;;19.48;78.33
79198;BME280;68628;48.714;9.472;2023-06-22T02:18:37;98105.66;;;19.48;78.35
79198;BME280;68628;48.714;9.472;2023-06-22T02:21:03;98097.88;;;19.47;78.55
79198;BME280;68628;48.714;9.472;2023-06-22T02:23:28;98105.91;;;19.35;78.79
79198;BME280;68628;48.714;9.472;2023-06-22T02:25:54;98103.63;;;19.27;79.21
79198;BME280;68628;48.714;9.472;2023-06-22T02:28:20;98109.63;;;19.22;79.19
79198;BME280;68628;48.714;9.472;2023-06-22T02:30:45;98111.97;;;19.30;79.08
79198;BME280;68628;48.714;9.472;2023-06-22T02:33:11;98106.53;;;19.25;78.89
79198;BME280;68628;48.714;9.472;2023-06-22T02:35:37;98104.91;;;19.24;79.00
79198;BME280;68628;48.714;9.472;2023-06-22T02:38:04;98106.06;;;19.17;79.21
79198;BME280;68628;48.714;9.472;2023-06-22T02:40:30;98109.88;;;19.09;79.40
79198;BME280;68628;48.714;9.472;2023-06-22T02:42:56;98109.69;;;19.10;79.65
79198;BME280;68628;48.714;9.472;2023-06-22T02:45:26;98108.97;;;19.03;79.66
79198;BME280;68628;48.714;9.472;2023-06-22T02:47:52;98113.94;;;19.00;79.73
79198;BME280;68628;48.714;9.472;2023-06-22T02:50:18;98113.03;;;18.94;80.08
79198;BME280;68628;48.714;9.472;2023-06-22T02:52:43;98113.34;;;18.86;80.44
79198;BME280;68628;48.714;9.472;2023-06-22T02:55:09;98113.91;;;18.88;80.26
79198;BME280;68628;48.714;9.472;2023-06-22T02:57:35;98101.41;;;18.88;79.79
79198;BME280;68628;48.714;9.472;2023-06-22T03:00:03;98095.56;;;18.68;80.66
79198;BME280;68628;48.714;9.472;2023-06-22T03:02:43;98085.56;;;18.51;82.25
79198;BME280;68628;48.714;9.472;2023-06-22T03:05:10;98090.41;;;18.42;82.22
79198;BME280;68628;48.714;9.472;2023-06-22T03:07:42;98088.78;;;18.41;82.92
79198;BME280;68628;48.714;9.472;2023-06-22T03:10:10;98084.19;;;18.48;82.75
79198;BME280;68628;48.714;9.472;2023-06-22T03:12:38;98082.56;;;18.59;81.76
79198;BME280;68628;48.714;9.472;2023-06-22T03:15:10;98073.06;;;18.63;81.48
79198;BME280;68628;48.714;9.472;2023-06-22T03:17:38;98076.53;;;18.64;81.57
79198;BME280;68628;48.714;9.472;2023-06-22T03:20:06;98073.19;;;18.69;81.17
79198;BME280;68628;48.714;9.472;2023-06-22T03:22:35;98075.84;;;18.69;81.54
79198;BME280;68628;48.714;9.472;2023-06-22T03:25:01;98079.56;;;18.68;81.04
79198;BME280;68628;48.714;9.472;2023-06-22T03:27:27;98082.22;;;18.68;80.33
79198;BME280;68628;48.714;9.472;2023-06-22T03:29:52;98079.56;;;18.68;80.98
79198;BME280;68628;48.714;9.472;2023-06-22T03:32:18;98078.41;;;18.63;80.84
79198;BME280;68628;48.714;9.472;2023-06-22T03:34:44;98070.13;;;18.41;82.50
79198;BME280;68628;48.714;9.472;2023-06-22T03:37:13;98068.28;;;18.54;81.98
79198;BME280;68628;48.714;9.472;2023-06-22T03:39:40;98066.56;;;18.59;81.40
79198;BME280;68628;48.714;9.472;2023-06-22T03:42:06;98061.91;;;18.67;81.40
79198;BME280;68628;48.714;9.472;2023-06-22T03:44:33;98070.03;;;18.72;81.16
79198;BME280;68628;48.714;9.472;2023-06-22T03:46:58;98070.63;;;18.86;80.79
79198;BME280;68628;48.714;9.472;2023-06-22T03:49:24;98073.41;;;18.79;80.99
79198;BME280;68628;48.714;9.472;2023-06-22T03:51:49;98070.03;;;18.84;80.11
79198;BME280;68628;48.714;9.472;2023-06-22T03:54:15;98078.19;;;18.89;79.47
79198;BME280;68628;48.714;9.472;2023-06-22T03:56:41;98070.41;;;18.87;80.08
79198;BME280;68628;48.714;9.472;2023-06-22T03:59:06;98071.09;;;18.82;80.38
79198;BME280;68628;48.714;9.472;2023-06-22T04:01:32;98070.78;;;18.91;79.55
79198;BME280;68628;48.714;9.472;2023-06-22T04:03:57;98076.53;;;18.88;80.16
79198;BME280;68628;48.714;9.472;2023-06-22T04:06:23;98071.31;;;18.81;80.73
79198;BME280;68628;48.714;9.472;2023-06-22T04:08:49;98074.38;;;18.96;79.98
79198;BME280;68628;48.714;9.472;2023-06-22T04:11:19;98074.25;;;19.03;79.29
79198;BME280;68628;48.714;9.472;2023-06-22T04:13:45;98070.66;;;18.97;79.81
79198;BME280;68628;48.714;9.472;2023-06-22T04:16:11;98068.22;;;19.08;79.98
79198;BME280;68628;48.714;9.472;2023-06-22T04:18:36;98064.94;;;19.18;79.49
79198;BME280;68628;48.714;9.472;2023-06-22T04:21:02;98063.78;;;19.25;79.10
79198;BME280;68628;48.714;9.472;2023-06-22T04:23:28;98052.63;;;19.17;79.21
79198;BME280;68628;48.714;9.472;2023-06-22T04:25:53;98051.72;;;19.23;79.25
79198;BME280;68628;48.714;9.472;2023-06-22T04:28:22;98046.50;;;19.16;79.89
79198;BME280;68628;48.714;9.472;2023-06-22T04:30:47;98041.94;;;19.28;78.97
79198;BME280;68628;48.714;9.472;2023-06-22T04:33:16;98039.97;;;19.24;78.85
79198;BME280;68628;48.714;9.472;2023-06-22T04:35:45;98036.59;;;19.28;79.33
79198;BME280;68628;48.714;9.472;2023-06-22T04:38:12;98041.78;;;19.47;78.81
79198;BME280;68628;48.714;9.472;2023-06-22T04:40:39;98049.09;;;19.52;78.69
79198;BME280;68628;48.714;9.472;2023-06-22T04:43:05;98041.22;;;19.45;78.57
79198;BME280;68628;48.714;9.472;2023-06-22T04:45:32;98042.50;;;19.42;79.08
79198;BME280;68628;48.714;9.472;2023-06-22T04:47:58;98037.13;;;19.54;78.86
79198;BME280;68628;48.714;9.472;2023-06-22T04:50:24;98035.03;;;19.44;79.06
79198;BME280;68628;48.714;9.472;2023-06-22T04:52:50;98022.13;;;19.53;78.94
79198;BME280;68628;48.714;9.472;2023-06-22T04:55:17;98020.16;;;19.77;77.71
79198;BME280;68628;48.714;9.472;2023-06-22T04:57:48;98017.47;;;19.89;77.79
79198;BME280;68628;48.714;9.472;2023-06-22T05:00:19;98012.06;;;20.01;77.10
79198;BME280;68628;48.714;9.472;2023-06-22T05:02:46;98015.47;;;19.96;77.43
79198;BME280;68628;48.714;9.472;2023-06-22T05:05:13;98010.78;;;20.21;76.79
79198;BME280;68628;48.714;9.472;2023-06-22T05:07:44;98016.53;;;20.12;76.88
79198;BME280;68628;48.714;9.472;2023-06-22T05:10:14;97999.13;;;20.27;76.76
79198;BME280;68628;48.714;9.472;2023-06-22T05:12:41;98000.06;;;20.55;74.79
79198;BME280;68628;48.714;9.472;2023-06-22T05:15:08;97996.03;;;20.52;75.15
79198;BME280;68628;48.714;9.472;2023-06-22T05:17:35;97988.13;;;20.62;74.93
79198;BME280;68628;48.714;9.472;2023-06-22T05:20:02;97997.53;;;20.82;74.68
79198;BME280;68628;48.714;9.472;2023-06-22T05:22:31;97988.84;;;20.92;72.76
79198;BME280;68628;48.714;9.472;2023-06-22T05:24:57;97993.81;;;20.83;73.55
79198;BME280;68628;48.714;9.472;2023-06-22T05:27:23;97984.50;;;21.08;73.15
79198;BME280;68628;48.714;9.472;2023-06-22T05:29:49;97988.28;;;21.12;71.44
79198;BME280;68628;48.714;9.472;2023-06-22T05:32:14;97979.94;;;21.30;71.02
79198;BME280;68628;48.714;9.472;2023-06-22T05:34:40;97982.09;;;21.34;71.09
79198;BME280;68628;48.714;9.472;2023-06-22T05:37:05;97982.41;;;21.37;70.39
79198;BME280;68628;48.714;9.472;2023-06-22T05:39:31;97979.47;;;21.39;70.39
79198;BME280;68628;48.714;9.472;2023-06-22T05:41:57;97965.53;;;21.37;69.51
79198;BME280;68628;48.714;9.472;2023-06-22T05:44:22;97962.03;;;21.58;69.83
79198;BME280;68628;48.714;9.472;2023-06-22T05:46:48;97966.97;;;21.72;68.44
79198;BME280;68628;48.714;9.472;2023-06-22T05:49:14;97967.47;;;21.96;67.61
79198;BME280;68628;48.714;9.472;2023-06-22T05:51:41;97965.78;;;22.22;66.60
79198;BME280;68628;48.714;9.472;2023-06-22T05:54:07;97970.63;;;22.20;66.65
79198;BME280;68628;48.714;9.472;2023-06-22T05:56:35;97970.94;;;22.29;65.98
79198;BME280;68628;48.714;9.472;2023-06-22T05:59:01;97970.75;;;22.36;65.85
79198;BME280;68628;48.714;9.472;2023-06-22T06:01:27;97974.69;;;22.60;65.16
79198;BME280;68628;48.714;9.472;2023-06-22T06:03:52;97970.81;;;22.89;63.54
79198;BME280;68628;48.714;9.472;2023-06-22T06:06:18;97970.88;;;23.04;63.59
79198;BME280;68628;48.714;9.472;2023-06-22T06:08:46;97969.03;;;23.10;63.58
79198;BME280;68628;48.714;9.472;2023-06-22T06:11:12;97961.13;;;23.56;61.22
79198;BME280;68628;48.714;9.472;2023-06-22T06:13:37;97961.47;;;23.91;60.38
79198;BME280;68628;48.714;9.472;2023-06-22T06:16:04;97966.81;;;23.86;60.86
79198;BME280;68628;48.714;9.472;2023-06-22T06:18:29;97962.81;;;24.29;59.82
79198;BME280;68628;48.714;9.472;2023-06-22T06:20:55;97959.28;;;24.44;59.14
79198;BME280;68628;48.714;9.472;2023-06-22T06:23:20;97968.72;;;24.63;58.22
79198;BME280;68628;48.714;9.472;2023-06-22T06:25:46;97960.34;;;24.69;57.43
79198;BME280;68628;48.714;9.472;2023-06-22T06:28:12;97957.31;;;24.97;56.39
79198;BME280;68628;48.714;9.472;2023-06-22T06:30:38;97964.50;;;25.11;55.73
79198;BME280;68628;48.714;9.472;2023-06-22T06:33:04;97958.50;;;25.25;55.46
79198;BME280;68628;48.714;9.472;2023-06-22T06:35:34;97962.13;;;25.00;55.85
79198;BME280;68628;48.714;9.472;2023-06-22T06:38:00;97967.16;;;25.72;54.85
79198;BME280;68628;48.714;9.472;2023-06-22T06:40:25;97959.81;;;25.33;54.79
79198;BME280;68628;48.714;9.472;2023-06-22T06:42:51;97957.94;;;25.38;54.30
79198;BME280;68628;48.714;9.472;2023-06-22T06:45:20;97959.56;;;25.34;55.02
79198;BME280;68628;48.714;9.472;2023-06-22T06:47:49;97959.19;;;25.96;53.67
79198;BME280;68628;48.714;9.472;2023-06-22T06:50:17;97954.94;;;25.85;53.43
79198;BME280;68628;48.714;9.472;2023-06-22T06:52:43;97959.13;;;26.06;53.31
79198;BME280;68628;48.714;9.472;2023-06-22T06:55:09;97968.34;;;26.59;52.25
79198;BME280;68628;48.714;9.472;2023-06-22T06:57:37;97954.53;;;26.36;51.80
79198;BME280;68628;48.714;9.472;2023-06-22T07:00:08;97964.44;;;26.46;52.45
79198;BME280;68628;48.714;9.472;2023-06-22T07:02:41;97965.75;;;26.78;51.47
79198;BME280;68628;48.714;9.472;2023-06-22T07:05:10;97955.03;;;26.68;51.32
79198;BME280;68628;48.714;9.472;2023-06-22T07:07:38;97956.56;;;27.22;50.22
79198;BME280;68628;48.714;9.472;2023-06-22T07:10:05;97962.31;;;27.40;48.96
79198;BME280;68628;48.714;9.472;2023-06-22T07:12:31;97957.06;;;27.49;49.50
79198;BME280;68628;48.714;9.472;2023-06-22T07:15:05;97958.28;;;27.75;49.11
79198;BME280;68628;48.714;9.472;2023-06-22T07:17:35;97960.09;;;27.99;47.92
79198;BME280;68628;48.714;9.472;2023-06-22T07:20:02;97947.91;;;27.83;47.33
79198;BME280;68628;48.714;9.472;2023-06-22T07:22:33;97940.56;;;27.83;47.35
79198;BME280;68628;48.714;9.472;2023-06-22T07:24:58;97947.47;;;27.75;47.36
79198;BME280;68628;48.714;9.472;2023-06-22T07:27:24;97954.38;;;28.20;46.30
79198;BME280;68628;48.714;9.472;2023-06-22T07:29:50;97951.88;;;28.23;46.04
79198;BME280;68628;48.714;9.472;2023-06-22T07:32:16;97937.84;;;28.35;45.58
79198;BME280;68628;48.714;9.472;2023-06-22T07:34:41;97934.91;;;28.65;44.73
79198;BME280;68628;48.714;9.472;2023-06-22T07:37:07;97926.56;;;28.75;44.44
79198;BME280;68628;48.714;9.472;2023-06-22T07:39:33;97928.47;;;28.74;44.42
79198;BME280;68628;48.714;9.472;2023-06-22T07:42:00;97928.94;;;28.63;43.12
79198;BME280;68628;48.714;9.472;2023-06-22T07:44:25;97915.38;;;28.63;44.06
79198;BME280;68628;48.714;9.472;2023-06-22T07:46:51;97916.28;;;28.44;44.84
79198;BME280;68628;48.714;9.472;2023-06-22T07:49:17;97900.84;;;28.45;44.37
79198;BME280;68628;48.714;9.472;2023-06-22T07:51:43;97897.88;;;28.27;44.13
79198;BME280;68628;48.714;9.472;2023-06-22T07:54:09;97887.50;;;28.76;43.80
79198;BME280;68628;48.714;9.472;2023-06-22T07:56:36;97888.09;;;29.23;43.01
79198;BME280;68628;48.714;9.472;2023-06-22T07:59:02;97888.72;;;29.20;42.56
79198;BME280;68628;48.714;9.472;2023-06-22T08:01:29;97900.63;;;28.97;43.44
79198;BME280;68628;48.714;9.472;2023-06-22T08:03:55;97884.88;;;29.35;42.80
79198;BME280;68628;48.714;9.472;2023-06-22T08:06:20;97875.94;;;30.03;41.80
79198;BME280;68628;48.714;9.472;2023-06-22T08:08:46;97873.97;;;29.27;42.25
79198;BME280;68628;48.714;9.472;2023-06-22T08:11:13;97869.22;;;29.78;42.30
79198;BME280;68628;48.714;9.472;2023-06-22T08:13:39;97865.84;;;30.26;40.67
79198;BME280;68628;48.714;9.472;2023-06-22T08:16:05;97861.00;;;30.54;40.23
79198;BME280;68628;48.714;9.472;2023-06-22T08:18:32;97857.69;;;30.26;40.08
79198;BME280;68628;48.714;9.472;2023-06-22T08:20:58;97852.72;;;30.28;39.97
79198;BME280;68628;48.714;9.472;2023-06-22T08:23:24;97870.34;;;30.80;39.38
79198;BME280;68628;48.714;9.472;2023-06-22T08:25:50;97859.72;;;30.52;40.21
79198;BME280;68628;48.714;9.472;2023-06-22T08:28:16;97861.09;;;30.89;39.28
79198;BME280;68628;48.714;9.472;2023-06-22T08:30:42;97866.91;;;31.05;39.66
79198;BME280;68628;48.714;9.472;2023-06-22T08:33:07;97865.84;;;30.57;40.40
79198;BME280;68628;48.714;9.472;2023-06-22T08:35:33;97862.19;;;30.71;39.40
79198;BME280;68628;48.714;9.472;2023-06-22T08:37:59;97884.91;;;30.75;39.17
79198;BME280;68628;48.714;9.472;2023-06-22T08:40:25;97898.03;;;30.90;38.97
79198;BME280;68628;48.714;9.472;2023-06-22T08:42:50;97909.81;;;31.52;37.62
79198;BME280;68628;48.714;9.472;2023-06-22T08:45:16;97915.41;;;32.00;37.19
79198;BME280;68628;48.714;9.472;2023-06-22T08:47:42;97911.69;;;33.20;35.77
79198;BME280;68628;48.714;9.472;2023-06-22T08:50:12;97914.50;;;33.12;35.86
79198;BME280;68628;48.714;9.472;2023-06-22T08:52:39;97933.84;;;33.91;34.78
79198;BME280;68628;48.714;9.472;2023-06-22T08:55:09;97940.25;;;34.66;32.84
79198;BME280;68628;48.714;9.472;2023-06-22T08:57:35;97949.84;;;34.97;32.24
79198;BME280;68628;48.714;9.472;2023-06-22T09:00:06;97962.47;;;36.36;30.06
79198;BME280;68628;48.714;9.472;2023-06-22T09:02:41;97967.44;;;36.94;28.77
79198;BME280;68628;48.714;9.472;2023-06-22T09:05:07;97955.22;;;36.44;29.48
79198;BME280;68628;48.714;9.472;2023-06-22T09:07:33;97952.13;;;35.07;30.64
79198;BME280;68628;48.714;9.472;2023-06-22T09:10:00;97941.00;;;33.96;32.52
79198;BME280;68628;48.714;9.472;2023-06-22T09:12:25;97921.69;;;34.84;32.50
79198;BME280;68628;48.714;9.472;2023-06-22T09:14:53;97920.72;;;35.29;31.20
79198;BME280;68628;48.714;9.472;2023-06-22T09:17:19;97914.81;;;34.41;32.37
79198;BME280;68628;48.714;9.472;2023-06-22T09:19:44;97914.69;;;34.37;32.23
79198;BME280;68628;48.714;9.472;2023-06-22T09:22:10;97918.03;;;34.09;33.16
79198;BME280;68628;48.714;9.472;2023-06-22T09:24:36;97920.28;;;34.53;32.11
79198;BME280;68628;48.714;9.472;2023-06-22T09:27:02;97913.13;;;35.79;31.60
79198;BME280;68628;48.714;9.472;2023-06-22T09:29:27;97912.13;;;36.44;29.95
79198;BME280;68628;48.714;9.472;2023-06-22T09:31:53;97911.66;;;36.42;30.50
79198;BME280;68628;48.714;9.472;2023-06-22T09:34:21;97921.44;;;37.27;29.17
79198;BME280;68628;48.714;9.472;2023-06-22T09:36:47;97917.00;;;34.72;31.02
79198;BME280;68628;48.714;9.472;2023-06-22T09:39:13;97913.19;;;33.39;34.22
79198;BME280;68628;48.714;9.472;2023-06-22T09:41:39;97897.97;;;33.93;33.64
79198;BME280;68628;48.714;9.472;2023-06-22T09:44:05;97894.53;;;35.03;31.47
79198;BME280;68628;48.714;9.472;2023-06-22T09:46:30;97894.66;;;34.95;31.90
79198;BME280;68628;48.714;9.472;2023-06-22T09:48:56;97885.91;;;36.15;30.00
79198;BME280;68628;48.714;9.472;2023-06-22T09:51:23;97882.47;;;35.33;31.25
79198;BME280;68628;48.714;9.472;2023-06-22T09:53:50;97880.06;;;34.41;33.33
79198;BME280;68628;48.714;9.472;2023-06-22T09:56:16;97892.34;;;35.78;32.33
79198;BME280;68628;48.714;9.472;2023-06-22T09:58:43;97889.50;;;35.75;31.37
79198;BME280;68628;48.714;9.472;2023-06-22T10:01:10;97889.84;;;34.79;33.24
79198;BME280;68628;48.714;9.472;2023-06-22T10:03:36;97893.06;;;33.01;36.75
79198;BME280;68628;48.714;9.472;2023-06-22T10:06:02;97894.19;;;33.21;35.95
79198;BME280;68628;48.714;9.472;2023-06-22T10:08:28;97886.34;;;34.42;34.34
79198;BME280;68628;48.714;9.472;2023-06-22T10:10:54;97876.72;;;33.44;35.42
79198;BME280;68628;48.714;9.472;2023-06-22T10:13:20;97879.25;;;33.28;36.31
79198;BME280;68628;48.714;9.472;2023-06-22T10:15:45;97872.31;;;31.58;38.62
79198;BME280;68628;48.714;9.472;2023-06-22T10:18:17;97870.91;;;32.73;38.23
79198;BME280;68628;48.714;9.472;2023-06-22T10:20:44;97855.25;;;33.12;36.17
79198;BME280;68628;48.714;9.472;2023-06-22T10:23:12;97853.09;;;33.60;35.77
79198;BME280;68628;48.714;9.472;2023-06-22T10:25:38;97860.19;;;33.40;35.44
79198;BME280;68628;48.714;9.472;2023-06-22T10:28:03;97865.22;;;32.87;36.81
79198;BME280;68628;48.714;9.472;2023-06-22T10:30:29;97855.56;;;32.30;38.41
79198;BME280;68628;48.714;9.472;2023-06-22T10:32:55;97856.31;;;31.83;38.67
79198;BME280;68628;48.714;9.472;2023-06-22T10:35:20;97843.66;;;32.94;38.21
79198;BME280;68628;48.714;9.472;2023-06-22T10:37:47;97835.41;;;34.49;34.58
79198;BME280;68628;48.714;9.472;2023-06-22T10:40:14;97832.44;;;32.96;37.04
79198;BME280;68628;48.714;9.472;2023-06-22T10:42:41;97837.66;;;33.22;37.22
79198;BME280;68628;48.714;9.472;2023-06-22T10:45:07;97834.25;;;34.38;35.43
79198;BME280;68628;48.714;9.472;2023-06-22T10:47:34;97835.22;;;33.63;35.76
79198;BME280;68628;48.714;9.472;2023-06-22T10:50:01;97827.47;;;33.98;35.58
79198;BME280;68628;48.714;9.472;2023-06-22T10:52:27;97819.97;;;33.07;36.52
79198;BME280;68628;48.714;9.472;2023-06-22T10:54:53;97818.31;;;33.36;35.65
79198;BME280;68628;48.714;9.472;2023-06-22T10:57:19;97808.53;;;33.47;35.15
79198;BME280;68628;48.714;9.472;2023-06-22T10:59:44;97812.91;;;34.07;34.46
79198;BME280;68628;48.714;9.472;2023-06-22T11:02:10;97810.44;;;34.38;34.01
79198;BME280;68628;48.714;9.472;2023-06-22T11:04:36;97813.69;;;33.95;34.33
79198;BME280;68628;48.714;9.472;2023-06-22T11:07:02;97817.13;;;34.29;33.43
79198;BME280;68628;48.714;9.472;2023-06-22T11:09:28;97801.88;;;34.03;33.86
79198;BME280;68628;48.714;9.472;2023-06-22T11:11:53;97800.72;;;33.92;33.22
79198;BME280;68628;48.714;9.472;2023-06-22T11:14:19;97804.69;;;34.07;32.15
79198;BME280;68628;48.714;9.472;2023-06-22T11:16:45;97813.47;;;33.87;33.73
79198;BME280;68628;48.714;9.472;2023-06-22T11:19:14;97810.47;;;33.47;34.59
79198;BME280;68628;48.714;9.472;2023-06-22T11:21:40;97812.78;;;33.45;34.67
79198;BME280;68628;48.714;9.472;2023-06-22T11:24:06;97813.25;;;33.93;34.15
79198;BME280;68628;48.714;9.472;2023-06-22T11:26:31;97807.78;;;33.93;33.90
79198;BME280;68628;48.714;9.472;2023-06-22T11:28:58;97805.53;;;34.07;34.52
79198;BME280;68628;48.714;9.472;2023-06-22T11:31:24;97819.22;;;34.44;32.72
79198;BME280;68628;48.714;9.472;2023-06-22T11:33:50;97808.56;;;34.80;32.11
79198;BME280;68628;48.714;9.472;2023-06-22T11:36:15;97808.84;;;34.37;32.17
79198;BME280;68628;48.714;9.472;2023-06-22T11:38:44;97802.66;;;33.58;34.40
79198;BME280;68628;48.714;9.472;2023-06-22T11:41:10;97802.63;;;33.45;35.25
79198;BME280;68628;48.714;9.472;2023-06-22T11:43:36;97795.50;;;33.65;34.39
79198;BME280;68628;48.714;9.472;2023-06-22T11:46:03;97787.13;;;33.37;34.40
79198;BME280;68628;48.714;9.472;2023-06-22T11:48:29;97786.84;;;33.97;34.72
79198;BME280;68628;48.714;9.472;2023-06-22T11:50:55;97786.50;;;34.48;32.72
79198;BME280;68628;48.714;9.472;2023-06-22T11:53:23;97785.28;;;33.29;34.01
79198;BME280;68628;48.714;9.472;2023-06-22T11:55:50;97784.75;;;33.35;34.51
79198;BME280;68628;48.714;9.472;2023-06-22T11:58:16;97780.72;;;33.54;34.24
79198;BME280;68628;48.714;9.472;2023-06-22T12:00:42;97782.91;;;33.73;34.58
79198;BME280;68628;48.714;9.472;2023-06-22T12:03:08;97794.41;;;33.33;35.05
79198;BME280;68628;48.714;9.472;2023-06-22T12:05:34;97800.41;;;33.60;34.65
79198;BME280;68628;48.714;9.472;2023-06-22T12:08:00;97790.34;;;32.97;35.26
79198;BME280;68628;48.714;9.472;2023-06-22T12:10:26;97789.28;;;32.89;35.01
79198;BME280;68628;48.714;9.472;2023-06-22T12:12:53;97787.78;;;33.34;35.28
79198;BME280;68628;48.714;9.472;2023-06-22T12:15:19;97776.56;;;33.81;33.90
79198;BME280;68628;48.714;9.472;2023-06-22T12:17:45;97770.78;;;34.45;33.83
79198;BME280;68628;48.714;9.472;2023-06-22T12:20:11;97769.63;;;34.46;32.96
79198;BME280;68628;48.714;9.472;2023-06-22T12:22:36;97769.78;;;34.78;32.36
79198;BME280;68628;48.714;9.472;2023-06-22T12:25:03;97763.81;;;34.10;33.85
79198;BME280;68628;48.714;9.472;2023-06-22T12:27:29;97763.38;;;33.83;34.81
79198;BME280;68628;48.714;9.472;2023-06-22T12:29:56;97771.31;;;33.09;35.38
79198;BME280;68628;48.714;9.472;2023-06-22T12:32:22;97773.38;;;32.91;34.84
79198;BME280;68628;48.714;9.472;2023-06-22T12:34:47;97776.63;;;33.27;34.50
79198;BME280;68628;48.714;9.472;2023-06-22T12:37:13;97774.03;;;33.09;35.45
79198;BME280;68628;48.714;9.472;2023-06-22T12:39:41;97784.81;;;32.33;35.27
79198;BME280;68628;48.714;9.472;2023-06-22T12:42:12;97788.03;;;32.56;35.18
79198;BME280;68628;48.714;9.472;2023-06-22T12:44:39;97793.06;;;32.76;37.13
79198;BME280;68628;48.714;9.472;2023-06-22T12:47:05;97797.34;;;32.85;39.04
79198;BME280;68628;48.714;9.472;2023-06-22T12:49:35;97797.41;;;32.98;38.52
79198;BME280;68628;48.714;9.472;2023-06-22T12:52:09;97807.19;;;32.99;38.32
79198;BME280;68628;48.714;9.472;2023-06-22T12:54:41;97811.19;;;32.80;38.23
79198;BME280;68628;48.714;9.472;2023-06-22T12:57:12;97831.94;;;32.64;37.96
79198;BME280;68628;48.714;9.472;2023-06-22T12:59:43;97828.81;;;32.83;39.24
79198;BME280;68628;48.714;9.472;2023-06-22T13:02:14;97829.94;;;33.03;38.40
79198;BME280;68628;48.714;9.472;2023-06-22T13:04:51;97824.53;;;33.15;38.35
79198;BME280;68628;48.714;9.472;2023-06-22T13:07:22;97822.38;;;33.30;37.12
79198;BME280;68628;48.714;9.472;2023-06-22T13:09:49;97813.41;;;33.42;38.36